Time;durP1;ratioP1;P1;durP2;ratioP2;P2;SDS_P1;SDS_P2;PMS_P1;PMS_P2;Temp;Humidity;BMP_temperature;BMP_pressure;BME280_temperature;BME280_humidity;BME280_pressure;Samples;Min_cycle;Max_cycle;Signal;HPM_P1;HPM_P2
2021/08/16 00:01:10;;;;;;;20.03;14.57;;;;;;;;;;752224;182;918576;-67
2021/08/16 00:03:36;;;;;;;22.60;16.60;;;;;;;;;;755943;182;918977;-67
2021/08/16 00:06:02;;;;;;;18.60;14.37;;;;;;;;;;761945;183;935891;-67
2021/08/16 00:08:28;;;;;;;15.97;12.60;;;;;;;;;;755348;183;919277;-67
2021/08/16 00:10:54;;;;;;;26.73;14.20;;;;;;;;;;756591;183;919564;-66
2021/08/16 00:13:20;;;;;;;16.23;13.70;;;;;;;;;;762552;181;919010;-66
2021/08/16 00:15:45;;;;;;;25.40;14.97;;;;;;;;;;755997;183;921146;-67
2021/08/16 00:18:11;;;;;;;21.17;15.20;;;;;;;;;;756425;183;919319;-67
2021/08/16 00:20:37;;;;;;;22.35;14.02;;;;;;;;;;759457;184;919671;-67
2021/08/16 00:23:03;;;;;;;16.67;13.20;;;;;;;;;;753718;182;919474;-67
2021/08/16 00:25:29;;;;;;;20.53;14.23;;;;;;;;;;754413;184;919117;-67
2021/08/16 00:27:55;;;;;;;24.20;14.10;;;;;;;;;;753178;183;1017454;-67
2021/08/16 00:30:21;;;;;;;22.40;14.20;;;;;;;;;;761119;182;941676;-67
2021/08/16 00:32:46;;;;;;;18.90;12.90;;;;;;;;;;755323;183;915791;-67
2021/08/16 00:35:12;;;;;;;15.97;12.80;;;;;;;;;;753798;183;914256;-67
2021/08/16 00:37:38;;;;;;;20.07;13.03;;;;;;;;;;762757;183;919060;-67
2021/08/16 00:40:05;;;;;;;21.53;14.47;;;;;;;;;;754950;184;918996;-67
2021/08/16 00:42:30;;;;;;;15.63;13.87;;;;;;;;;;755500;184;919602;-67
2021/08/16 00:44:56;;;;;;;16.07;13.27;;;;;;;;;;758499;184;918485;-68
2021/08/16 00:47:23;;;;;;;16.93;13.87;;;;;;;;;;753783;184;918656;-67
2021/08/16 00:49:48;;;;;;;18.50;12.53;;;;;;;;;;754421;184;920066;-68
2021/08/16 00:52:14;;;;;;;17.77;13.53;;;;;;;;;;752277;184;919636;-67
2021/08/16 00:54:40;;;;;;;20.63;13.17;;;;;;;;;;753211;184;927415;-67
2021/08/16 00:57:06;;;;;;;23.63;14.10;;;;;;;;;;754256;184;919090;-67
2021/08/16 00:59:32;;;;;;;20.00;12.87;;;;;;;;;;753626;184;918834;-69
2021/08/16 01:01:58;;;;;;;19.80;12.90;;;;;;;;;;759792;184;919266;-67
2021/08/16 01:04:23;;;;;;;18.00;12.80;;;;;;;;;;754809;184;918846;-66
2021/08/16 01:06:49;;;;;;;20.00;13.90;;;;;;;;;;754573;184;918948;-67
2021/08/16 01:09:15;;;;;;;24.33;14.83;;;;;;;;;;759704;184;919338;-67
2021/08/16 01:11:41;;;;;;;17.83;12.90;;;;;;;;;;754572;183;918788;-68
2021/08/16 01:14:07;;;;;;;19.12;12.43;;;;;;;;;;755457;183;919843;-68
2021/08/16 01:16:33;;;;;;;16.17;11.90;;;;;;;;;;757482;183;918307;-66
2021/08/16 01:18:59;;;;;;;17.90;13.17;;;;;;;;;;755713;183;918971;-67
2021/08/16 01:21:25;;;;;;;20.13;12.30;;;;;;;;;;754721;184;917857;-67
2021/08/16 01:23:50;;;;;;;15.88;12.02;;;;;;;;;;754488;184;919344;-67
2021/08/16 01:26:16;;;;;;;16.80;12.60;;;;;;;;;;762205;183;827322;-67
2021/08/16 01:28:42;;;;;;;18.13;12.00;;;;;;;;;;755363;183;983293;-68
2021/08/16 01:31:08;;;;;;;14.23;10.93;;;;;;;;;;756478;183;918774;-67
2021/08/16 01:33:34;;;;;;;19.27;12.10;;;;;;;;;;759245;183;918550;-67
2021/08/16 01:36:00;;;;;;;19.60;12.43;;;;;;;;;;754360;183;918136;-67
2021/08/16 01:38:25;;;;;;;18.50;12.27;;;;;;;;;;755931;184;918957;-68
2021/08/16 01:40:51;;;;;;;17.40;13.20;;;;;;;;;;759262;184;918463;-67
2021/08/16 01:43:17;;;;;;;24.20;12.90;;;;;;;;;;750274;184;936969;-67
2021/08/16 01:45:43;;;;;;;17.47;13.90;;;;;;;;;;754732;184;919536;-67
2021/08/16 01:48:09;;;;;;;21.90;13.70;;;;;;;;;;754865;181;919137;-67
2021/08/16 01:50:35;;;;;;;16.47;13.13;;;;;;;;;;760558;184;919004;-67
2021/08/16 01:53:01;;;;;;;15.20;12.77;;;;;;;;;;755402;184;918539;-67
2021/08/16 01:55:26;;;;;;;16.47;12.53;;;;;;;;;;755513;184;919215;-68
2021/08/16 01:57:52;;;;;;;18.20;13.67;;;;;;;;;;757939;184;919441;-68
2021/08/16 02:00:18;;;;;;;18.03;13.47;;;;;;;;;;754207;184;918517;-67
2021/08/16 02:02:44;;;;;;;16.47;13.20;;;;;;;;;;753158;184;918732;-67
2021/08/16 02:05:10;;;;;;;13.87;12.17;;;;;;;;;;759410;184;917582;-67
2021/08/16 02:07:36;;;;;;;16.73;12.60;;;;;;;;;;754693;184;919337;-67
2021/08/16 02:10:02;;;;;;;16.50;12.00;;;;;;;;;;753654;184;919188;-66
2021/08/16 02:12:28;;;;;;;17.70;12.90;;;;;;;;;;754423;184;919042;-66
2021/08/16 02:14:54;;;;;;;18.23;12.40;;;;;;;;;;756667;183;918921;-67
2021/08/16 02:17:19;;;;;;;19.00;12.50;;;;;;;;;;754427;184;919636;-67
2021/08/16 02:19:47;;;;;;;14.57;11.83;;;;;;;;;;754559;184;919949;-67
2021/08/16 02:22:11;;;;;;;17.87;12.27;;;;;;;;;;760565;183;919196;-66
2021/08/16 02:24:37;;;;;;;16.10;12.90;;;;;;;;;;755529;184;918071;-66
2021/08/16 02:27:03;;;;;;;14.90;12.97;;;;;;;;;;758112;183;918658;-67
2021/08/16 02:29:29;;;;;;;18.10;12.60;;;;;;;;;;760282;183;919240;-66
2021/08/16 02:31:55;;;;;;;18.27;12.40;;;;;;;;;;756432;184;918256;-66
2021/08/16 02:34:20;;;;;;;16.10;12.57;;;;;;;;;;756429;183;918249;-66
2021/08/16 02:36:47;;;;;;;16.23;13.70;;;;;;;;;;757261;183;921588;-65
2021/08/16 02:39:12;;;;;;;20.60;12.93;;;;;;;;;;755422;181;919140;-66
2021/08/16 02:41:38;;;;;;;20.13;13.87;;;;;;;;;;755691;183;918147;-67
2021/08/16 02:44:04;;;;;;;15.80;12.88;;;;;;;;;;753516;184;919191;-66
2021/08/16 02:46:30;;;;;;;17.53;13.00;;;;;;;;;;760463;183;1096842;-66
2021/08/16 02:48:56;;;;;;;18.90;13.60;;;;;;;;;;756423;184;919224;-66
2021/08/16 02:51:22;;;;;;;22.42;13.68;;;;;;;;;;755881;184;918780;-67
2021/08/16 02:53:48;;;;;;;16.07;13.00;;;;;;;;;;759586;183;918798;-66
2021/08/16 02:56:14;;;;;;;20.43;13.63;;;;;;;;;;754733;184;919245;-66
2021/08/16 02:58:39;;;;;;;15.70;11.30;;;;;;;;;;756632;181;919900;-68
2021/08/16 03:01:05;;;;;;;17.40;11.63;;;;;;;;;;759037;182;917583;-67
2021/08/16 03:03:31;;;;;;;13.50;11.40;;;;;;;;;;754963;184;919401;-67
2021/08/16 03:05:57;;;;;;;17.77;12.50;;;;;;;;;;752950;184;918423;-67
2021/08/16 03:08:23;;;;;;;21.37;11.83;;;;;;;;;;752580;184;919612;-66
2021/08/16 03:10:49;;;;;;;19.00;12.40;;;;;;;;;;760459;184;919098;-67
2021/08/16 03:13:14;;;;;;;17.53;11.60;;;;;;;;;;753970;184;918487;-67
2021/08/16 03:15:40;;;;;;;16.60;12.40;;;;;;;;;;753741;184;919004;-67
2021/08/16 03:18:06;;;;;;;15.80;11.40;;;;;;;;;;758901;184;919351;-67
2021/08/16 03:20:32;;;;;;;18.70;10.87;;;;;;;;;;754257;182;919767;-67
2021/08/16 03:22:58;;;;;;;13.83;11.47;;;;;;;;;;754833;184;919918;-67
2021/08/16 03:25:24;;;;;;;18.17;11.80;;;;;;;;;;758260;184;918442;-67
2021/08/16 03:27:49;;;;;;;19.07;11.40;;;;;;;;;;754123;182;920787;-67
2021/08/16 03:30:15;;;;;;;12.20;10.10;;;;;;;;;;755983;184;919317;-67
2021/08/16 03:32:41;;;;;;;21.60;12.30;;;;;;;;;;753346;183;921994;-67
2021/08/16 03:35:07;;;;;;;19.00;12.30;;;;;;;;;;760910;183;918730;-66
2021/08/16 03:37:35;;;;;;;15.03;10.60;;;;;;;;;;755427;183;914698;-66
2021/08/16 03:39:59;;;;;;;18.93;11.90;;;;;;;;;;754881;184;939499;-67
2021/08/16 03:42:25;;;;;;;14.70;9.73;;;;;;;;;;760738;184;919766;-67
2021/08/16 03:44:51;;;;;;;10.20;9.20;;;;;;;;;;755347;182;920115;-66
2021/08/16 03:47:16;;;;;;;17.30;10.97;;;;;;;;;;756179;183;918976;-66
2021/08/16 03:49:42;;;;;;;18.23;10.47;;;;;;;;;;759774;181;928122;-66
2021/08/16 03:52:08;;;;;;;18.90;13.70;;;;;;;;;;755075;183;919097;-66
2021/08/16 03:54:34;;;;;;;13.60;10.77;;;;;;;;;;754989;183;918716;-66
2021/08/16 03:57:00;;;;;;;18.83;11.30;;;;;;;;;;757327;184;919019;-66
2021/08/16 03:59:26;;;;;;;16.07;10.50;;;;;;;;;;754165;182;917619;-66
2021/08/16 04:01:52;;;;;;;22.47;10.97;;;;;;;;;;754238;184;919607;-66
2021/08/16 04:04:18;;;;;;;17.12;12.48;;;;;;;;;;755215;183;922075;-68
2021/08/16 04:06:44;;;;;;;14.50;11.30;;;;;;;;;;761574;181;1021268;-66
2021/08/16 04:09:11;;;;;;;17.00;11.57;;;;;;;;;;755646;183;919350;-66
2021/08/16 04:11:36;;;;;;;18.17;11.32;;;;;;;;;;755180;184;918901;-66
2021/08/16 04:14:01;;;;;;;16.50;12.10;;;;;;;;;;759233;184;918841;-65
2021/08/16 04:16:27;;;;;;;18.27;11.27;;;;;;;;;;754631;184;919385;-66
2021/08/16 04:18:53;;;;;;;20.03;12.83;;;;;;;;;;758308;181;918463;-65
2021/08/16 04:21:19;;;;;;;16.57;13.30;;;;;;;;;;758494;184;918968;-66
2021/08/16 04:23:45;;;;;;;24.30;13.63;;;;;;;;;;752469;184;919318;-66
2021/08/16 04:26:11;;;;;;;16.83;13.33;;;;;;;;;;752617;184;923418;-66
2021/08/16 04:28:36;;;;;;;19.30;13.87;;;;;;;;;;753405;185;918695;-65
2021/08/16 04:31:02;;;;;;;22.70;13.10;;;;;;;;;;759156;184;918908;-66
2021/08/16 04:33:28;;;;;;;20.10;13.87;;;;;;;;;;756246;184;919277;-65
2021/08/16 04:35:54;;;;;;;20.80;13.98;;;;;;;;;;754964;184;918832;-65
2021/08/16 04:38:21;;;;;;;23.17;14.40;;;;;;;;;;759967;181;918588;-65
2021/08/16 04:40:46;;;;;;;19.42;14.05;;;;;;;;;;754811;184;918716;-67
2021/08/16 04:43:12;;;;;;;24.50;17.20;;;;;;;;;;756456;184;919813;-65
2021/08/16 04:45:38;;;;;;;19.20;14.00;;;;;;;;;;758517;184;919128;-65
2021/08/16 04:48:04;;;;;;;22.53;16.03;;;;;;;;;;754220;183;923243;-66
2021/08/16 04:50:30;;;;;;;20.70;15.37;;;;;;;;;;756954;183;919521;-65
2021/08/16 04:52:56;;;;;;;24.30;17.07;;;;;;;;;;755244;183;916791;-65
2021/08/16 04:55:22;;;;;;;17.93;15.37;;;;;;;;;;761620;183;918682;-65
2021/08/16 04:57:47;;;;;;;22.73;15.00;;;;;;;;;;757921;183;982816;-65
2021/08/16 05:00:14;;;;;;;21.58;17.48;;;;;;;;;;754480;184;918617;-64
2021/08/16 05:02:41;;;;;;;21.53;16.00;;;;;;;;;;759993;183;918768;-65
2021/08/16 05:05:11;;;;;;;20.97;15.13;;;;;;;;;;756961;181;918805;-65
2021/08/16 05:07:36;;;;;;;29.97;17.30;;;;;;;;;;753140;184;941022;-66
2021/08/16 05:10:02;;;;;;;23.33;15.47;;;;;;;;;;755503;183;918478;-66
2021/08/16 05:12:28;;;;;;;20.00;13.90;;;;;;;;;;762845;180;1017060;-66
2021/08/16 05:14:54;;;;;;;14.43;12.90;;;;;;;;;;753186;182;914957;-66
2021/08/16 05:17:19;;;;;;;20.13;12.87;;;;;;;;;;755221;181;913292;-66
2021/08/16 05:19:45;;;;;;;23.93;13.80;;;;;;;;;;762170;183;911258;-66
2021/08/16 05:22:11;;;;;;;18.87;14.60;;;;;;;;;;755260;183;920640;-66
2021/08/16 05:24:44;;;;;;;19.00;15.37;;;;;;;;;;755532;184;931555;-66
2021/08/16 05:27:10;;;;;;;18.30;13.00;;;;;;;;;;752778;184;917337;-66
2021/08/16 05:29:35;;;;;;;16.50;13.20;;;;;;;;;;750504;181;914125;-67
2021/08/16 05:32:01;;;;;;;22.77;13.33;;;;;;;;;;753604;181;917625;-67
2021/08/16 05:34:27;;;;;;;15.67;12.03;;;;;;;;;;753896;181;908303;-67
2021/08/16 05:36:53;;;;;;;17.47;13.53;;;;;;;;;;760467;182;915293;-66
2021/08/16 05:39:19;;;;;;;16.80;12.47;;;;;;;;;;754326;182;907383;-67
2021/08/16 05:41:45;;;;;;;17.80;13.07;;;;;;;;;;754054;184;924004;-67
2021/08/16 05:44:10;;;;;;;12.10;10.90;;;;;;;;;;759693;184;915444;-67
2021/08/16 05:46:36;;;;;;;18.23;12.80;;;;;;;;;;753629;182;945486;-66
2021/08/16 05:49:02;;;;;;;17.20;12.10;;;;;;;;;;754327;185;918541;-68
2021/08/16 05:51:28;;;;;;;19.43;12.97;;;;;;;;;;757391;184;918287;-67
2021/08/16 05:53:54;;;;;;;16.10;12.07;;;;;;;;;;753841;184;918868;-68
2021/08/16 05:56:20;;;;;;;21.03;11.20;;;;;;;;;;754537;184;921417;-67
2021/08/16 05:58:45;;;;;;;16.63;11.20;;;;;;;;;;753980;184;918944;-68
2021/08/16 06:01:11;;;;;;;12.40;8.80;;;;;;;;;;761283;182;956548;-68
2021/08/16 06:03:37;;;;;;;13.57;9.17;;;;;;;;;;755629;184;918680;-68
2021/08/16 06:06:03;;;;;;;13.13;9.18;;;;;;;;;;755376;184;917735;-67
2021/08/16 06:08:29;;;;;;;14.70;9.43;;;;;;;;;;760699;183;918907;-68
2021/08/16 06:10:55;;;;;;;8.27;7.33;;;;;;;;;;754639;184;999727;-68
2021/08/16 06:13:20;;;;;;;19.63;8.90;;;;;;;;;;756825;182;919377;-68
2021/08/16 06:15:46;;;;;;;8.60;7.47;;;;;;;;;;762418;183;918801;-68
2021/08/16 06:18:12;;;;;;;14.70;8.53;;;;;;;;;;753465;184;919142;-67
2021/08/16 06:20:38;;;;;;;11.83;7.57;;;;;;;;;;752803;184;994050;-68
2021/08/16 06:23:04;;;;;;;9.40;7.72;;;;;;;;;;757017;183;917786;-67
2021/08/16 06:25:30;;;;;;;9.17;7.90;;;;;;;;;;757851;182;826494;-68
2021/08/16 06:27:55;;;;;;;11.70;7.93;;;;;;;;;;756498;184;919109;-68
2021/08/16 06:30:21;;;;;;;21.27;8.30;;;;;;;;;;756078;184;918294;-68
2021/08/16 06:32:47;;;;;;;8.50;6.30;;;;;;;;;;762257;184;629708;-67
2021/08/16 06:35:15;;;;;;;11.93;6.87;;;;;;;;;;753868;184;919989;-69
2021/08/16 06:37:39;;;;;;;8.70;6.00;;;;;;;;;;754760;184;928982;-68
2021/08/16 06:40:06;;;;;;;8.60;6.70;;;;;;;;;;762315;181;629750;-69
2021/08/16 06:42:31;;;;;;;14.00;7.03;;;;;;;;;;756560;184;915797;-69
2021/08/16 06:44:57;;;;;;;12.33;6.87;;;;;;;;;;753168;184;918982;-69
2021/08/16 06:47:23;;;;;;;10.67;6.23;;;;;;;;;;754384;182;1234383;-68
2021/08/16 06:49:49;;;;;;;9.40;6.90;;;;;;;;;;755734;184;919551;-70
2021/08/16 06:52:14;;;;;;;11.03;6.67;;;;;;;;;;757260;185;628816;-69
2021/08/16 06:54:40;;;;;;;7.80;6.15;;;;;;;;;;756267;184;908455;-70
2021/08/16 06:57:06;;;;;;;9.27;5.83;;;;;;;;;;761160;182;918389;-69
2021/08/16 06:59:33;;;;;;;10.20;6.70;;;;;;;;;;760205;184;634720;-68
2021/08/16 07:01:58;;;;;;;7.93;5.43;;;;;;;;;;760113;183;634002;-70
2021/08/16 07:04:24;;;;;;;8.10;5.83;;;;;;;;;;761315;182;646486;-68
2021/08/16 07:06:50;;;;;;;8.70;5.83;;;;;;;;;;756131;184;918048;-68
2021/08/16 07:09:16;;;;;;;9.17;5.97;;;;;;;;;;751212;184;919066;-69
2021/08/16 07:11:42;;;;;;;7.83;6.00;;;;;;;;;;760040;182;921354;-69
2021/08/16 07:14:08;;;;;;;19.57;6.03;;;;;;;;;;755230;183;919030;-69
2021/08/16 07:16:33;;;;;;;7.63;5.90;;;;;;;;;;754625;183;919218;-68
2021/08/16 07:18:59;;;;;;;13.30;5.90;;;;;;;;;;754934;183;918747;-69
2021/08/16 07:21:25;;;;;;;8.80;5.50;;;;;;;;;;763820;183;636273;-70
2021/08/16 07:23:51;;;;;;;7.80;5.30;;;;;;;;;;760468;183;641801;-68
2021/08/16 07:26:17;;;;;;;7.23;5.33;;;;;;;;;;757871;183;944756;-70
2021/08/16 07:28:45;;;;;;;11.33;5.93;;;;;;;;;;759595;183;919248;-68
2021/08/16 07:31:09;;;;;;;6.83;5.57;;;;;;;;;;755946;184;916561;-68
2021/08/16 07:33:34;;;;;;;9.43;5.30;;;;;;;;;;754144;181;919173;-68
2021/08/16 07:36:00;;;;;;;6.60;4.50;;;;;;;;;;758320;182;918785;-68
2021/08/16 07:38:26;;;;;;;8.03;5.03;;;;;;;;;;754544;184;918972;-68
2021/08/16 07:40:52;;;;;;;9.93;5.73;;;;;;;;;;753436;183;918523;-69
2021/08/16 07:43:20;;;;;;;8.93;5.47;;;;;;;;;;755927;184;918694;-68
2021/08/16 07:45:44;;;;;;;6.73;5.13;;;;;;;;;;757072;184;918958;-70
2021/08/16 07:48:10;;;;;;;7.47;4.80;;;;;;;;;;757817;181;813057;-67
2021/08/16 07:50:35;;;;;;;12.10;5.40;;;;;;;;;;755636;184;919249;-68
2021/08/16 07:53:01;;;;;;;13.63;6.10;;;;;;;;;;760576;181;918587;-67
2021/08/16 07:55:27;;;;;;;11.03;5.30;;;;;;;;;;755717;181;918695;-66
2021/08/16 07:57:53;;;;;;;9.30;5.60;;;;;;;;;;756425;182;918896;-68
2021/08/16 08:00:19;;;;;;;7.00;5.27;;;;;;;;;;758601;184;920000;-68
2021/08/16 08:02:45;;;;;;;8.53;5.07;;;;;;;;;;761012;184;912007;-66
2021/08/16 08:05:11;;;;;;;8.37;4.97;;;;;;;;;;757386;184;918748;-67
2021/08/16 08:07:37;;;;;;;8.07;4.53;;;;;;;;;;755520;183;919080;-67
2021/08/16 08:10:03;;;;;;;7.17;5.00;;;;;;;;;;755220;184;918274;-68
2021/08/16 08:12:29;;;;;;;10.97;5.17;;;;;;;;;;756405;184;914598;-66
2021/08/16 08:14:55;;;;;;;10.43;5.00;;;;;;;;;;753450;181;918778;-68
2021/08/16 08:17:22;;;;;;;9.37;5.77;;;;;;;;;;758212;184;918737;-67
2021/08/16 08:19:47;;;;;;;13.77;6.40;;;;;;;;;;754395;181;921129;-68
2021/08/16 08:22:13;;;;;;;6.63;5.50;;;;;;;;;;754446;184;918834;-67
2021/08/16 08:24:38;;;;;;;12.60;5.67;;;;;;;;;;760798;183;918990;-68
2021/08/16 08:27:04;;;;;;;10.63;6.37;;;;;;;;;;758360;183;920397;-67
2021/08/16 08:29:30;;;;;;;5.93;4.97;;;;;;;;;;756466;184;919414;-67
2021/08/16 08:31:56;;;;;;;9.30;6.53;;;;;;;;;;759021;183;918260;-68
2021/08/16 08:34:22;;;;;;;15.07;5.67;;;;;;;;;;756331;181;916559;-67
2021/08/16 08:36:48;;;;;;;14.73;5.87;;;;;;;;;;753822;182;918203;-67
2021/08/16 08:39:14;;;;;;;11.27;5.70;;;;;;;;;;753623;183;919966;-67
2021/08/16 08:41:39;;;;;;;11.50;6.23;;;;;;;;;;759631;183;948483;-65
2021/08/16 08:44:10;;;;;;;10.57;5.97;;;;;;;;;;754090;183;919583;-69
2021/08/16 08:46:31;;;;;;;13.50;6.80;;;;;;;;;;754654;184;918654;-67
2021/08/16 08:48:57;;;;;;;12.43;6.43;;;;;;;;;;759787;183;918734;-67
2021/08/16 08:51:24;;;;;;;10.50;6.20;;;;;;;;;;756514;183;921745;-68
2021/08/16 08:53:51;;;;;;;11.37;5.63;;;;;;;;;;755598;183;919486;-67
2021/08/16 08:56:19;;;;;;;14.43;6.50;;;;;;;;;;756691;182;919700;-67
2021/08/16 08:58:45;;;;;;;11.00;5.93;;;;;;;;;;758249;183;914960;-68
2021/08/16 09:01:11;;;;;;;10.27;5.60;;;;;;;;;;755461;181;913933;-67
2021/08/16 09:03:36;;;;;;;11.97;5.50;;;;;;;;;;753790;183;929953;-68
2021/08/16 09:06:02;;;;;;;14.35;5.65;;;;;;;;;;757973;184;906966;-69
2021/08/16 09:08:28;;;;;;;8.30;5.47;;;;;;;;;;755879;180;916630;-67
2021/08/16 09:11:09;;;;;;;9.67;5.23;;;;;;;;;;752951;181;915856;-66
2021/08/16 09:13:35;;;;;;;8.63;4.90;;;;;;;;;;756623;184;921512;-68
2021/08/16 09:16:16;;;;;;;8.03;5.30;;;;;;;;;;761378;184;629834;-68
2021/08/16 09:18:42;;;;;;;10.00;5.43;;;;;;;;;;756998;181;633574;-69
2021/08/16 09:21:09;;;;;;;12.53;5.53;;;;;;;;;;752899;184;915407;-67
2021/08/16 09:23:45;;;;;;;11.93;5.40;;;;;;;;;;758078;184;619047;-67
2021/08/16 09:26:10;;;;;;;8.93;5.43;;;;;;;;;;757724;184;628895;-69
2021/08/16 09:28:34;;;;;;;6.87;5.30;;;;;;;;;;762514;184;619196;-67
2021/08/16 09:31:06;;;;;;;8.10;4.90;;;;;;;;;;759595;184;634664;-68
2021/08/16 09:33:32;;;;;;;11.93;5.13;;;;;;;;;;760013;181;626616;-67
2021/08/16 09:35:58;;;;;;;6.70;3.70;;;;;;;;;;755352;183;918587;-67
2021/08/16 09:38:29;;;;;;;6.53;4.07;;;;;;;;;;760675;181;920292;-67
2021/08/16 09:40:55;;;;;;;9.80;4.60;;;;;;;;;;754297;183;920756;-67
2021/08/16 09:43:25;;;;;;;7.73;5.50;;;;;;;;;;754211;184;921722;-69
2021/08/16 09:45:51;;;;;;;7.30;4.33;;;;;;;;;;760390;181;912232;-68
2021/08/16 09:48:17;;;;;;;7.40;4.10;;;;;;;;;;756412;184;920090;-68
2021/08/16 09:50:44;;;;;;;8.30;4.60;;;;;;;;;;757075;183;911392;-67
2021/08/16 09:53:12;;;;;;;6.07;4.10;;;;;;;;;;754178;183;935864;-68
2021/08/16 09:55:39;;;;;;;8.33;4.10;;;;;;;;;;759638;183;919235;-67
2021/08/16 09:58:05;;;;;;;8.10;4.37;;;;;;;;;;754909;183;918844;-69
2021/08/16 10:00:31;;;;;;;7.30;4.90;;;;;;;;;;754660;183;921685;-68
2021/08/16 10:02:57;;;;;;;10.77;4.77;;;;;;;;;;760864;183;919614;-68
2021/08/16 10:05:22;;;;;;;11.30;5.30;;;;;;;;;;753086;183;919609;-70
2021/08/16 10:07:48;;;;;;;6.73;4.83;;;;;;;;;;753254;183;919319;-67
2021/08/16 10:10:14;;;;;;;6.10;3.90;;;;;;;;;;755447;183;918811;-67
2021/08/16 10:12:40;;;;;;;6.27;4.33;;;;;;;;;;752706;184;918018;-69
2021/08/16 10:15:06;;;;;;;6.27;3.73;;;;;;;;;;752460;184;918629;-70
2021/08/16 10:17:33;;;;;;;6.10;4.23;;;;;;;;;;755755;181;919028;-67
2021/08/16 10:19:59;;;;;;;9.00;4.97;;;;;;;;;;757554;184;902362;-68
2021/08/16 10:22:25;;;;;;;9.00;4.67;;;;;;;;;;754588;184;918442;-69
2021/08/16 10:24:51;;;;;;;10.20;4.57;;;;;;;;;;755253;182;919200;-67
2021/08/16 10:27:16;;;;;;;8.80;4.50;;;;;;;;;;758680;184;919678;-68
2021/08/16 10:29:42;;;;;;;10.70;4.47;;;;;;;;;;754864;182;918980;-69
2021/08/16 10:32:08;;;;;;;6.73;3.97;;;;;;;;;;753375;182;914550;-69
2021/08/16 10:34:34;;;;;;;8.80;4.03;;;;;;;;;;754310;181;918831;-68
2021/08/16 10:37:00;;;;;;;13.33;4.40;;;;;;;;;;753995;184;919509;-70
2021/08/16 10:39:32;;;;;;;7.30;4.27;;;;;;;;;;753094;184;918916;-68
2021/08/16 10:42:05;;;;;;;5.68;4.00;;;;;;;;;;753508;181;919452;-69
2021/08/16 10:44:46;;;;;;;18.30;6.33;;;;;;;;;;754033;184;918642;-66
2021/08/16 10:47:12;;;;;;;5.27;3.93;;;;;;;;;;759253;184;919426;-68
2021/08/16 10:49:38;;;;;;;9.73;4.30;;;;;;;;;;759170;183;1044807;-69
2021/08/16 10:52:04;;;;;;;7.50;3.60;;;;;;;;;;756382;184;918302;-67
2021/08/16 10:54:30;;;;;;;7.97;4.30;;;;;;;;;;757495;182;917774;-69
2021/08/16 10:56:55;;;;;;;9.50;4.47;;;;;;;;;;760928;184;919160;-68
2021/08/16 10:59:21;;;;;;;5.37;4.40;;;;;;;;;;757826;181;918822;-68
2021/08/16 11:01:47;;;;;;;5.90;4.43;;;;;;;;;;756435;184;918185;-70
2021/08/16 11:04:17;;;;;;;5.57;4.23;;;;;;;;;;761058;183;816116;-69
2021/08/16 11:06:52;;;;;;;8.60;4.27;;;;;;;;;;755150;182;965209;-66
2021/08/16 11:09:18;;;;;;;7.43;4.87;;;;;;;;;;756020;184;918120;-69
2021/08/16 11:11:44;;;;;;;6.53;4.63;;;;;;;;;;753961;183;945965;-70
2021/08/16 11:14:09;;;;;;;9.23;4.80;;;;;;;;;;758652;183;918326;-70
2021/08/16 11:16:41;;;;;;;8.83;4.30;;;;;;;;;;755021;181;918673;-69
2021/08/16 11:19:07;;;;;;;13.43;4.43;;;;;;;;;;752030;183;1125263;-69
2021/08/16 11:21:33;;;;;;;11.20;4.60;;;;;;;;;;753365;181;920987;-70
2021/08/16 11:23:59;;;;;;;6.77;4.40;;;;;;;;;;759924;182;921737;-69
2021/08/16 11:26:25;;;;;;;9.87;5.00;;;;;;;;;;753184;184;1128867;-68
2021/08/16 11:28:50;;;;;;;9.15;4.97;;;;;;;;;;755386;181;919636;-69
2021/08/16 11:31:16;;;;;;;8.93;4.43;;;;;;;;;;758471;184;918128;-70
2021/08/16 11:33:42;;;;;;;9.63;5.27;;;;;;;;;;754930;181;922735;-69
2021/08/16 11:36:08;;;;;;;7.57;4.40;;;;;;;;;;754875;184;919761;-69
2021/08/16 11:38:34;;;;;;;8.23;5.20;;;;;;;;;;753289;184;918413;-67
2021/08/16 11:41:02;;;;;;;6.40;4.90;;;;;;;;;;756348;184;915591;-70
2021/08/16 11:43:28;;;;;;;8.50;5.50;;;;;;;;;;752813;181;920361;-70
2021/08/16 11:45:54;;;;;;;8.50;5.03;;;;;;;;;;753200;181;919162;-69
2021/08/16 11:48:22;;;;;;;10.70;4.70;;;;;;;;;;759373;184;921540;-69
2021/08/16 11:50:48;;;;;;;11.30;5.30;;;;;;;;;;757762;182;912092;-69
2021/08/16 11:53:14;;;;;;;12.50;5.40;;;;;;;;;;756806;184;908205;-70
2021/08/16 11:55:39;;;;;;;9.17;4.73;;;;;;;;;;758519;184;909061;-71
2021/08/16 11:58:05;;;;;;;14.60;5.07;;;;;;;;;;755618;183;913122;-70
2021/08/16 12:00:36;;;;;;;8.90;5.43;;;;;;;;;;759708;183;876494;-69
2021/08/16 12:02:57;;;;;;;6.07;3.83;;;;;;;;;;756813;184;912448;-70
2021/08/16 12:05:23;;;;;;;9.33;4.60;;;;;;;;;;761809;183;747821;-69
2021/08/16 12:07:49;;;;;;;7.40;5.03;;;;;;;;;;758680;184;635511;-69
2021/08/16 12:10:15;;;;;;;8.47;4.93;;;;;;;;;;758369;182;618830;-68
2021/08/16 12:12:41;;;;;;;9.00;4.40;;;;;;;;;;761012;183;903662;-70
2021/08/16 12:15:09;;;;;;;9.70;6.60;;;;;;;;;;757560;181;918806;-69
2021/08/16 12:17:33;;;;;;;9.50;4.47;;;;;;;;;;757655;183;898757;-69
2021/08/16 12:20:08;;;;;;;9.50;4.60;;;;;;;;;;759269;183;919661;-69
2021/08/16 12:22:33;;;;;;;9.53;4.80;;;;;;;;;;755558;183;918482;-68
2021/08/16 12:25:00;;;;;;;7.37;5.03;;;;;;;;;;753682;183;921691;-69
2021/08/16 12:27:26;;;;;;;10.23;4.60;;;;;;;;;;753002;183;919317;-69
2021/08/16 12:29:52;;;;;;;6.47;4.30;;;;;;;;;;759449;183;918398;-69
2021/08/16 12:32:25;;;;;;;8.30;5.57;;;;;;;;;;755699;183;918816;-68
2021/08/16 12:34:51;;;;;;;8.00;4.53;;;;;;;;;;755856;184;919169;-70
2021/08/16 12:37:35;;;;;;;11.43;5.10;;;;;;;;;;754137;184;977800;-66
2021/08/16 12:40:06;;;;;;;7.40;4.70;;;;;;;;;;754902;184;919966;-69
2021/08/16 12:42:31;;;;;;;7.17;5.77;;;;;;;;;;759824;184;816764;-70
2021/08/16 12:44:57;;;;;;;13.37;5.23;;;;;;;;;;754719;184;918856;-70
2021/08/16 12:47:25;;;;;;;10.13;5.40;;;;;;;;;;754482;184;919200;-68
2021/08/16 12:49:53;;;;;;;7.57;5.40;;;;;;;;;;754243;184;922369;-68
2021/08/16 12:52:19;;;;;;;10.60;5.47;;;;;;;;;;758536;184;919141;-69
2021/08/16 12:54:45;;;;;;;5.53;4.50;;;;;;;;;;753302;184;919771;-69
2021/08/16 12:57:11;;;;;;;10.37;5.57;;;;;;;;;;752922;184;919382;-69
2021/08/16 12:59:37;;;;;;;8.43;5.80;;;;;;;;;;758632;184;919534;-69
2021/08/16 13:02:02;;;;;;;8.80;5.50;;;;;;;;;;753711;183;922245;-67
2021/08/16 13:04:29;;;;;;;7.73;4.83;;;;;;;;;;754112;184;920525;-68
2021/08/16 13:06:54;;;;;;;12.83;5.77;;;;;;;;;;754734;184;917696;-70
2021/08/16 13:09:20;;;;;;;6.57;5.33;;;;;;;;;;761553;181;919425;-69
2021/08/16 13:11:46;;;;;;;11.00;4.77;;;;;;;;;;754709;183;1021109;-70
2021/08/16 13:14:12;;;;;;;8.37;6.37;;;;;;;;;;755434;183;916168;-68
2021/08/16 13:16:38;;;;;;;11.90;4.50;;;;;;;;;;759272;183;919223;-69
2021/08/16 13:19:03;;;;;;;9.40;4.70;;;;;;;;;;755549;183;918957;-69
2021/08/16 13:21:29;;;;;;;6.87;4.70;;;;;;;;;;756481;181;918774;-69
2021/08/16 13:23:55;;;;;;;8.83;4.93;;;;;;;;;;759804;184;916980;-69
2021/08/16 13:26:21;;;;;;;12.73;6.00;;;;;;;;;;755953;183;920893;-69
2021/08/16 13:28:47;;;;;;;7.55;5.47;;;;;;;;;;754173;184;918412;-68
2021/08/16 13:31:13;;;;;;;11.27;5.83;;;;;;;;;;758654;184;919478;-70
2021/08/16 13:33:38;;;;;;;8.77;5.62;;;;;;;;;;754047;181;920258;-71
2021/08/16 13:36:04;;;;;;;13.23;5.70;;;;;;;;;;752657;181;915769;-67
2021/08/16 13:38:30;;;;;;;11.83;4.77;;;;;;;;;;753470;181;921136;-69
2021/08/16 13:40:56;;;;;;;7.40;5.00;;;;;;;;;;759477;183;915332;-68
2021/08/16 13:43:22;;;;;;;14.00;5.47;;;;;;;;;;754604;183;916209;-70
2021/08/16 13:45:49;;;;;;;8.80;5.20;;;;;;;;;;753316;184;915898;-67
2021/08/16 13:48:14;;;;;;;12.13;5.67;;;;;;;;;;750347;185;915235;-67
2021/08/16 13:50:40;;;;;;;8.50;5.23;;;;;;;;;;756474;184;1017539;-66
2021/08/16 13:53:06;;;;;;;11.40;6.13;;;;;;;;;;753879;184;919270;-68
2021/08/16 13:55:31;;;;;;;13.10;5.70;;;;;;;;;;758722;184;922880;-68
2021/08/16 13:57:57;;;;;;;7.10;5.70;;;;;;;;;;754144;184;918829;-68
2021/08/16 14:00:24;;;;;;;8.90;5.60;;;;;;;;;;754015;184;918592;-67
2021/08/16 14:02:49;;;;;;;6.90;4.30;;;;;;;;;;751207;184;918444;-68
2021/08/16 14:05:15;;;;;;;10.37;5.30;;;;;;;;;;758532;181;919512;-67
2021/08/16 14:07:41;;;;;;;8.37;5.50;;;;;;;;;;754101;184;918776;-68
2021/08/16 14:10:07;;;;;;;9.03;5.97;;;;;;;;;;753440;184;919756;-68